RJSF/FKS METAR and TAF weather

Enter ICAO airport designator
Station Type Date Time Source
RJSF METAR 2022/01/29 02:00 UTC NOAA

RJSF 290200Z 31012KT 260V350 9999 FEW020 SCT/// 03/M07 Q1011


Station Type Date Time Source
RJSF Decoded METAR 2022/01/29 02:00 UTC NOAA

Fukushima Airport, Japan (RJSF) 37-14N 140-26E 375M
Jan 28, 2022 - 09:00 PM EST / 2022.01.29 0200 UTC
Wind: from the NW (310 degrees) at 14 MPH (12 KT) (direction variable):0
Visibility: greater than 7 mile(s):0
Sky conditions: partly cloudy
Temperature: 37 F (3 C)
Dew Point: 19 F (-7 C)
Relative Humidity: 47%
Pressure (altimeter): 29.85 in. Hg (1011 hPa)
ob: RJSF 290200Z 31012KT 260V350 9999 FEW020 SCT/// 03/M07 Q1011
cycle: 2

Station Type Date Time Source
RJSF TAF 2022/01/28 18:29 UTC NOAA

TAF RJSF 281706Z 2818/3000 32008KT 9999 FEW020 BKN030
TEMPO 2909/2912 1500 -SHSN FEW005 BKN008 BKN015

Example: see airport list